createdAt,value
2023-05-14T00:00:38.198Z,0.00
2023-05-14T00:01:38.133Z,0.00
2023-05-14T00:02:38.181Z,0.00
2023-05-14T00:03:38.206Z,0.00
2023-05-14T00:04:38.210Z,0.00
2023-05-14T00:05:38.084Z,0.00
2023-05-14T00:06:38.111Z,0.00
2023-05-14T00:07:38.090Z,0.00
2023-05-14T00:08:38.061Z,0.00
2023-05-14T00:09:39.048Z,0.00
2023-05-14T00:10:38.060Z,0.00
2023-05-14T00:11:38.044Z,0.00
2023-05-14T00:12:38.035Z,0.00
2023-05-14T00:13:38.010Z,0.00
2023-05-14T00:14:37.999Z,0.00
2023-05-14T00:15:39.037Z,0.00
2023-05-14T00:16:38.150Z,0.00
2023-05-14T00:17:37.998Z,0.00
2023-05-14T00:18:37.979Z,0.00
2023-05-14T00:19:37.949Z,0.00
2023-05-14T00:20:37.955Z,0.00
2023-05-14T00:21:37.929Z,0.00
2023-05-14T00:22:37.925Z,0.00
2023-05-14T00:23:37.917Z,0.00
2023-05-14T00:24:37.911Z,0.00
2023-05-14T00:25:37.914Z,0.00
2023-05-14T00:26:37.874Z,0.00
2023-05-14T00:27:37.968Z,0.00
2023-05-14T00:28:37.853Z,0.00
2023-05-14T00:29:37.858Z,0.00
2023-05-14T00:30:37.836Z,0.00
2023-05-14T00:31:37.921Z,0.00
2023-05-14T00:32:37.881Z,0.00
2023-05-14T00:33:37.798Z,0.00
2023-05-14T00:34:37.811Z,0.00
2023-05-14T00:35:37.789Z,0.00
2023-05-14T00:36:37.784Z,0.00
2023-05-14T00:37:37.827Z,0.00
2023-05-14T00:38:37.779Z,0.00
2023-05-14T00:39:37.773Z,0.00
2023-05-14T00:40:37.757Z,0.00
2023-05-14T00:41:37.729Z,0.00
2023-05-14T00:42:37.742Z,0.00
2023-05-14T00:43:37.712Z,0.00
2023-05-14T00:44:37.692Z,0.00
2023-05-14T00:45:37.673Z,0.00
2023-05-14T00:46:37.735Z,0.00
2023-05-14T00:47:37.751Z,0.00
2023-05-14T00:48:37.657Z,0.00
2023-05-14T00:49:37.631Z,0.00
2023-05-14T00:50:37.628Z,0.00
2023-05-14T00:51:37.616Z,0.00
2023-05-14T00:52:37.636Z,0.00
2023-05-14T00:53:37.630Z,0.00
2023-05-14T00:54:37.592Z,0.00
2023-05-14T00:55:37.574Z,0.00
2023-05-14T00:56:37.559Z,0.00
2023-05-14T00:57:37.574Z,0.00
2023-05-14T00:58:37.532Z,0.00
2023-05-14T00:59:37.530Z,0.00
2023-05-14T01:00:37.566Z,0.00
2023-05-14T01:01:37.507Z,0.00
2023-05-14T01:02:37.552Z,0.00
2023-05-14T01:03:37.610Z,0.00
2023-05-14T01:04:37.490Z,0.00
2023-05-14T01:05:37.466Z,0.00
2023-05-14T01:06:37.463Z,0.00
2023-05-14T01:07:37.474Z,0.00
2023-05-14T01:08:37.451Z,0.00
2023-05-14T01:09:37.429Z,0.00
2023-05-14T01:10:37.413Z,0.00
2023-05-14T01:11:37.432Z,0.00
2023-05-14T01:12:37.391Z,0.00
2023-05-14T01:13:37.379Z,0.00
2023-05-14T01:14:37.366Z,0.00
2023-05-14T01:15:37.353Z,0.00
2023-05-14T01:16:37.419Z,0.00
2023-05-14T01:17:37.345Z,0.00
2023-05-14T01:18:37.412Z,0.00
2023-05-14T01:19:37.319Z,0.00
2023-05-14T01:20:37.316Z,0.00
2023-05-14T01:21:37.307Z,0.00
2023-05-14T01:22:37.276Z,0.00
2023-05-14T01:23:37.269Z,0.00
2023-05-14T01:24:37.257Z,0.00
2023-05-14T01:25:37.256Z,0.00
2023-05-14T01:26:38.257Z,0.00
2023-05-14T01:27:37.228Z,0.00
2023-05-14T01:28:37.229Z,0.00
2023-05-14T01:29:37.205Z,0.00
2023-05-14T01:30:37.211Z,0.00
2023-05-14T01:31:37.223Z,0.00
2023-05-14T01:32:37.177Z,0.00
2023-05-14T01:33:37.160Z,0.00
2023-05-14T01:34:37.162Z,0.00
2023-05-14T01:35:37.150Z,0.00
2023-05-14T01:36:37.127Z,0.00
2023-05-14T01:37:37.130Z,0.00
2023-05-14T01:38:37.112Z,0.00
2023-05-14T01:39:37.114Z,0.00
2023-05-14T01:40:37.104Z,0.00
2023-05-14T01:41:37.079Z,0.00
2023-05-14T01:42:37.060Z,0.00
2023-05-14T01:43:37.106Z,0.00
2023-05-14T01:44:37.094Z,0.00
2023-05-14T01:45:37.039Z,0.00
2023-05-14T01:46:37.062Z,0.00
2023-05-14T01:47:37.045Z,0.00
2023-05-14T01:48:37.013Z,0.00
2023-05-14T01:49:37.003Z,0.00
2023-05-14T01:50:36.981Z,0.00
2023-05-14T01:51:36.968Z,0.00
2023-05-14T01:52:36.956Z,0.00
2023-05-14T01:53:36.970Z,0.00
2023-05-14T01:54:36.938Z,0.00
2023-05-14T01:55:36.920Z,0.00
2023-05-14T01:56:36.927Z,0.00
2023-05-14T01:57:36.904Z,0.00
2023-05-14T01:58:36.908Z,0.00
2023-05-14T01:59:36.876Z,0.00
2023-05-14T02:00:37.868Z,0.00
2023-05-14T02:01:36.871Z,0.00
2023-05-14T02:02:36.909Z,0.00
2023-05-14T02:03:36.864Z,0.00
2023-05-14T02:04:36.830Z,0.00
2023-05-14T02:05:36.811Z,0.00
2023-05-14T02:06:37.809Z,0.00
2023-05-14T02:07:36.823Z,0.00
2023-05-14T02:08:36.793Z,0.00
2023-05-14T02:09:36.772Z,0.00
2023-05-14T02:10:36.766Z,0.00
2023-05-14T02:11:36.767Z,0.00
2023-05-14T02:12:36.757Z,0.00
2023-05-14T02:13:36.742Z,0.00
2023-05-14T02:14:36.727Z,0.00
2023-05-14T02:15:36.753Z,0.00
2023-05-14T02:16:36.714Z,0.00
2023-05-14T02:17:36.842Z,0.00
2023-05-14T02:18:36.746Z,0.00
2023-05-14T02:19:36.673Z,0.00
2023-05-14T02:20:36.669Z,0.00
2023-05-14T02:21:36.662Z,0.00
2023-05-14T02:22:36.647Z,0.00
2023-05-14T02:23:41.410Z,0.00
2023-05-14T02:24:38.620Z,0.00
2023-05-14T02:25:36.617Z,0.00
2023-05-14T02:26:36.616Z,0.00
2023-05-14T02:27:36.597Z,0.00
2023-05-14T02:28:36.610Z,0.00
2023-05-14T02:29:36.586Z,0.00
2023-05-14T02:30:36.579Z,0.00
2023-05-14T02:31:36.578Z,0.00
2023-05-14T02:32:36.642Z,0.00
2023-05-14T02:33:36.560Z,0.00
2023-05-14T02:34:36.522Z,0.00
2023-05-14T02:35:36.521Z,0.00
2023-05-14T02:36:36.512Z,0.00
2023-05-14T02:37:36.495Z,0.00
2023-05-14T02:38:36.488Z,0.00
2023-05-14T02:39:36.481Z,0.00
2023-05-14T02:40:36.476Z,0.00
2023-05-14T02:41:36.464Z,0.00
2023-05-14T02:42:36.468Z,0.00
2023-05-14T02:43:36.438Z,0.00
2023-05-14T02:44:36.433Z,0.00
2023-05-14T02:45:36.428Z,0.00
2023-05-14T02:46:36.425Z,0.00
2023-05-14T02:47:38.021Z,0.00
2023-05-14T02:48:37.381Z,0.00
2023-05-14T02:49:36.388Z,0.00
2023-05-14T02:50:36.378Z,0.00
2023-05-14T02:51:36.339Z,0.00
2023-05-14T02:52:36.336Z,0.00
2023-05-14T02:53:36.338Z,0.00
2023-05-14T02:54:36.388Z,0.00
2023-05-14T02:55:36.298Z,0.00
2023-05-14T02:56:36.356Z,0.00
2023-05-14T02:57:36.280Z,0.00
2023-05-14T02:58:36.295Z,0.00
2023-05-14T02:59:36.269Z,0.00
2023-05-14T03:00:36.280Z,0.00
2023-05-14T03:01:36.244Z,0.00
2023-05-14T03:02:36.329Z,0.00
2023-05-14T03:03:36.233Z,4.00
2023-05-14T03:04:36.226Z,4.00
2023-05-14T03:05:36.212Z,0.00
2023-05-14T03:06:36.187Z,0.00
2023-05-14T03:07:36.175Z,4.00
2023-05-14T03:08:36.187Z,4.00
2023-05-14T03:09:38.285Z,0.00
2023-05-14T03:10:37.154Z,4.00
2023-05-14T03:11:36.136Z,0.00
2023-05-14T03:12:36.173Z,4.00
2023-05-14T03:13:36.129Z,4.00
2023-05-14T03:14:36.103Z,8.00
2023-05-14T03:15:36.132Z,8.00
2023-05-14T03:16:36.212Z,8.00
2023-05-14T03:17:36.180Z,8.00
2023-05-14T03:18:36.123Z,8.00
2023-05-14T03:19:36.051Z,8.00
2023-05-14T03:20:36.029Z,12.00
2023-05-14T03:21:36.023Z,12.00
2023-05-14T03:22:36.024Z,12.00
2023-05-14T03:23:36.998Z,16.00
2023-05-14T03:24:35.990Z,16.00
2023-05-14T03:25:35.984Z,20.00
2023-05-14T03:26:35.986Z,20.00
2023-05-14T03:27:35.968Z,24.00
2023-05-14T03:28:35.946Z,24.00
2023-05-14T03:29:35.938Z,28.00
2023-05-14T03:30:35.950Z,32.00
2023-05-14T03:31:35.926Z,32.00
2023-05-14T03:32:35.974Z,36.00
2023-05-14T03:33:35.910Z,40.00
2023-05-14T03:34:35.891Z,40.00
2023-05-14T03:35:35.863Z,44.00
2023-05-14T03:36:35.874Z,48.00
2023-05-14T03:37:35.854Z,52.00
2023-05-14T03:38:35.836Z,56.00
2023-05-14T03:39:35.827Z,56.00
2023-05-14T03:40:35.834Z,60.00
2023-05-14T03:41:35.820Z,64.00
2023-05-14T03:42:35.810Z,72.00
2023-05-14T03:43:35.786Z,76.00
2023-05-14T03:44:35.785Z,80.00
2023-05-14T03:45:35.774Z,84.00
2023-05-14T03:46:35.758Z,88.00
2023-05-14T03:47:35.798Z,96.00
2023-05-14T03:48:35.762Z,104.00
2023-05-14T03:49:35.734Z,108.00
2023-05-14T03:50:35.790Z,116.00
2023-05-14T03:51:35.708Z,120.00
2023-05-14T03:52:35.691Z,128.00
2023-05-14T03:53:35.682Z,132.00
2023-05-14T03:54:35.684Z,136.00
2023-05-14T03:55:35.679Z,144.00
2023-05-14T03:56:35.653Z,152.00
2023-05-14T03:57:35.647Z,156.00
2023-05-14T03:58:35.627Z,160.00
2023-05-14T03:59:35.634Z,168.00
2023-05-14T04:00:35.614Z,172.00
2023-05-14T04:01:35.599Z,180.00
2023-05-14T04:02:35.627Z,188.00
2023-05-14T04:03:35.820Z,196.00
2023-05-14T04:04:35.671Z,200.00
2023-05-14T04:05:35.578Z,204.00
2023-05-14T04:06:35.571Z,212.00
2023-05-14T04:07:35.541Z,216.00
2023-05-14T04:08:35.542Z,224.00
2023-05-14T04:09:35.532Z,228.00
2023-05-14T04:10:35.526Z,232.00
2023-05-14T04:11:35.506Z,240.00
2023-05-14T04:12:35.500Z,244.00
2023-05-14T04:13:35.495Z,252.00
2023-05-14T04:14:35.468Z,264.00
2023-05-14T04:15:35.467Z,272.00
2023-05-14T04:16:35.558Z,284.00
2023-05-14T04:17:35.454Z,284.00
2023-05-14T04:18:35.474Z,292.00
2023-05-14T04:19:35.423Z,300.00
2023-05-14T04:20:35.412Z,308.00
2023-05-14T04:21:35.403Z,316.00
2023-05-14T04:22:35.409Z,324.00
2023-05-14T04:23:35.392Z,336.00
2023-05-14T04:24:35.371Z,344.00
2023-05-14T04:25:35.359Z,352.00
2023-05-14T04:26:35.352Z,356.00
2023-05-14T04:27:35.352Z,364.00
2023-05-14T04:28:35.336Z,368.00
2023-05-14T04:29:35.312Z,372.00
2023-05-14T04:30:35.303Z,384.00
2023-05-14T04:31:35.312Z,392.00
2023-05-14T04:32:35.312Z,400.00
2023-05-14T04:33:35.280Z,408.00
2023-05-14T04:34:35.275Z,408.00
2023-05-14T04:35:35.260Z,412.00
2023-05-14T04:36:35.255Z,412.00
2023-05-14T04:37:35.243Z,416.00
2023-05-14T04:38:35.222Z,428.00
2023-05-14T04:39:35.208Z,436.00
2023-05-14T04:40:35.200Z,448.00
2023-05-14T04:41:35.201Z,456.00
2023-05-14T04:42:35.182Z,464.00
2023-05-14T04:43:35.193Z,476.00
2023-05-14T04:44:35.150Z,488.00
2023-05-14T04:45:36.245Z,504.00
2023-05-14T04:46:35.328Z,524.00
2023-05-14T04:47:35.147Z,540.00
2023-05-14T04:48:35.111Z,560.00
2023-05-14T04:49:35.100Z,580.00
2023-05-14T04:50:35.117Z,604.00
2023-05-14T04:51:35.102Z,624.00
2023-05-14T04:52:35.069Z,648.00
2023-05-14T04:53:35.054Z,668.00
2023-05-14T04:54:35.148Z,688.00
2023-05-14T04:55:35.053Z,708.00
2023-05-14T04:56:35.024Z,720.00
2023-05-14T04:57:35.021Z,740.00
2023-05-14T04:58:35.386Z,764.00
2023-05-14T04:59:35.997Z,780.00
2023-05-14T05:00:34.989Z,796.00
2023-05-14T05:01:35.022Z,816.00
2023-05-14T05:02:35.030Z,832.00
2023-05-14T05:03:34.977Z,848.00
2023-05-14T05:04:34.951Z,868.00
2023-05-14T05:05:34.948Z,888.00
2023-05-14T05:06:34.926Z,912.00
2023-05-14T05:07:34.913Z,944.00
2023-05-14T05:08:34.905Z,968.00
2023-05-14T05:09:34.913Z,980.00
2023-05-14T05:10:34.893Z,984.00
2023-05-14T05:11:34.878Z,980.00
2023-05-14T05:12:34.866Z,972.00
2023-05-14T05:13:34.856Z,976.00
2023-05-14T05:14:34.850Z,984.00
2023-05-14T05:15:35.859Z,1000.00
2023-05-14T05:16:34.963Z,1016.00
2023-05-14T05:17:34.858Z,1008.00
2023-05-14T05:18:35.086Z,1008.00
2023-05-14T05:19:43.237Z,1012.00
2023-05-14T05:20:36.788Z,1012.00
2023-05-14T05:21:34.774Z,1012.00
2023-05-14T05:22:34.776Z,1016.00
2023-05-14T05:23:34.768Z,1020.00
2023-05-14T05:24:34.745Z,1028.00
2023-05-14T05:25:34.738Z,1024.00
2023-05-14T05:26:34.719Z,1020.00
2023-05-14T05:27:34.713Z,1016.00
2023-05-14T05:28:34.717Z,1016.00
2023-05-14T05:29:34.693Z,1020.00
2023-05-14T05:30:34.696Z,1024.00
2023-05-14T05:31:34.755Z,1028.00
2023-05-14T05:32:34.820Z,1032.00
2023-05-14T05:33:34.662Z,1032.00
2023-05-14T05:34:34.646Z,1032.00
2023-05-14T05:35:34.642Z,1028.00
2023-05-14T05:36:34.622Z,1024.00
2023-05-14T05:37:34.843Z,1024.00
2023-05-14T05:38:34.596Z,1028.00
2023-05-14T05:39:34.605Z,1028.00
2023-05-14T05:40:34.591Z,1020.00
2023-05-14T05:41:34.571Z,1012.00
2023-05-14T05:42:34.720Z,1012.00
2023-05-14T05:43:34.555Z,1012.00
2023-05-14T05:44:34.537Z,1020.00
2023-05-14T05:45:34.521Z,1024.00
2023-05-14T05:46:34.544Z,1032.00
2023-05-14T05:47:34.693Z,1032.00
2023-05-14T05:48:35.491Z,1040.00
2023-05-14T05:49:34.484Z,1044.00
2023-05-14T05:50:34.498Z,1044.00
2023-05-14T05:51:34.487Z,1052.00
2023-05-14T05:52:34.476Z,1064.00
2023-05-14T05:53:34.460Z,1072.00
2023-05-14T05:54:34.448Z,1088.00
2023-05-14T05:55:34.425Z,1104.00
2023-05-14T05:56:34.442Z,1116.00
2023-05-14T05:57:34.414Z,1128.00
2023-05-14T05:58:34.389Z,1136.00
2023-05-14T05:59:34.384Z,1136.00
2023-05-14T06:00:34.384Z,1140.00
2023-05-14T06:01:34.392Z,1144.00
2023-05-14T06:02:34.383Z,1148.00
2023-05-14T06:03:34.343Z,1160.00
2023-05-14T06:04:34.336Z,1176.00
2023-05-14T06:05:34.366Z,1196.00
2023-05-14T06:06:34.308Z,1224.00
2023-05-14T06:07:34.300Z,1252.00
2023-05-14T06:08:34.290Z,1280.00
2023-05-14T06:09:34.277Z,1316.00
2023-05-14T06:10:34.289Z,1348.00
2023-05-14T06:11:34.255Z,1380.00
2023-05-14T06:12:34.259Z,1412.00
2023-05-14T06:13:34.252Z,1448.00
2023-05-14T06:14:34.245Z,1488.00
2023-05-14T06:15:34.234Z,1524.00
2023-05-14T06:16:34.275Z,1572.00
2023-05-14T06:17:34.224Z,1620.00
2023-05-14T06:18:34.218Z,1660.00
2023-05-14T06:19:34.181Z,1696.00
2023-05-14T06:20:34.221Z,1724.00
2023-05-14T06:21:34.153Z,1740.00
2023-05-14T06:22:34.144Z,1748.00
2023-05-14T06:23:34.193Z,1756.00
2023-05-14T06:24:34.131Z,1768.00
2023-05-14T06:25:34.118Z,1784.00
2023-05-14T06:26:34.101Z,1796.00
2023-05-14T06:27:34.089Z,1816.00
2023-05-14T06:28:34.094Z,1848.00
2023-05-14T06:29:34.084Z,1880.00
2023-05-14T06:30:34.100Z,1904.00
2023-05-14T06:31:34.068Z,1932.00
2023-05-14T06:32:34.053Z,1948.00
2023-05-14T06:33:34.042Z,1964.00
2023-05-14T06:34:34.030Z,1992.00
2023-05-14T06:35:34.012Z,2032.00
2023-05-14T06:36:34.000Z,2080.00
2023-05-14T06:37:33.998Z,2128.00
2023-05-14T06:38:34.026Z,2172.00
2023-05-14T06:39:33.970Z,2212.00
2023-05-14T06:40:34.113Z,2240.00
2023-05-14T06:41:33.948Z,2276.00
2023-05-14T06:42:33.969Z,2312.00
2023-05-14T06:43:33.946Z,2356.00
2023-05-14T06:44:33.919Z,2408.00
2023-05-14T06:45:34.028Z,2464.00
2023-05-14T06:46:33.894Z,2516.00
2023-05-14T06:47:33.908Z,2572.00
2023-05-14T06:48:33.957Z,2624.00
2023-05-14T06:49:33.866Z,2656.00
2023-05-14T06:50:33.855Z,2688.00
2023-05-14T06:51:33.857Z,2712.00
2023-05-14T06:52:33.862Z,2732.00
2023-05-14T06:53:33.847Z,2752.00
2023-05-14T06:54:33.823Z,2780.00
2023-05-14T06:55:33.834Z,2800.00
2023-05-14T06:56:33.818Z,2812.00
2023-05-14T06:57:33.799Z,2824.00
2023-05-14T06:58:33.786Z,2836.00
2023-05-14T06:59:33.770Z,2848.00
2023-05-14T07:00:33.762Z,2872.00
2023-05-14T07:01:33.795Z,2924.00
2023-05-14T07:02:33.757Z,2992.00
2023-05-14T07:03:33.729Z,3048.00
2023-05-14T07:04:33.764Z,3112.00
2023-05-14T07:05:33.736Z,3188.00
2023-05-14T07:06:33.715Z,3308.00
2023-05-14T07:07:33.686Z,3440.00
2023-05-14T07:08:33.668Z,3560.00
2023-05-14T07:09:33.667Z,3632.00
2023-05-14T07:10:33.666Z,3616.00
2023-05-14T07:11:33.659Z,3544.00
2023-05-14T07:12:33.645Z,3456.00
2023-05-14T07:13:33.641Z,3388.00
2023-05-14T07:14:33.623Z,3344.00
2023-05-14T07:15:33.630Z,3316.00
2023-05-14T07:16:33.641Z,3292.00
2023-05-14T07:17:33.622Z,3272.00
2023-05-14T07:18:33.589Z,3276.00
2023-05-14T07:19:33.584Z,3324.00
2023-05-14T07:20:33.567Z,3408.00
2023-05-14T07:21:33.548Z,3520.00
2023-05-14T07:22:33.544Z,3656.00
2023-05-14T07:23:33.524Z,3816.00
2023-05-14T07:24:33.552Z,3936.00
2023-05-14T07:25:33.523Z,4032.00
2023-05-14T07:26:33.501Z,4080.00
2023-05-14T07:27:33.498Z,4100.00
2023-05-14T07:28:33.475Z,4128.00
2023-05-14T07:29:33.480Z,4160.00
2023-05-14T07:30:33.556Z,4184.00
2023-05-14T07:31:33.467Z,4216.00
2023-05-14T07:32:33.464Z,4232.00
2023-05-14T07:33:33.432Z,4228.00
2023-05-14T07:34:33.434Z,4220.00
2023-05-14T07:35:33.506Z,4208.00
2023-05-14T07:36:33.397Z,4196.00
2023-05-14T07:37:33.399Z,4168.00
2023-05-14T07:38:33.397Z,4140.00
2023-05-14T07:39:33.378Z,4132.00
2023-05-14T07:40:33.487Z,4140.00
2023-05-14T07:41:33.356Z,4160.00
2023-05-14T07:42:36.620Z,4164.00
2023-05-14T07:43:34.341Z,4184.00
2023-05-14T07:44:33.334Z,4192.00
2023-05-14T07:45:33.315Z,4228.00
2023-05-14T07:46:33.302Z,4288.00
2023-05-14T07:47:33.395Z,4368.00
2023-05-14T07:48:33.466Z,4436.00
2023-05-14T07:49:33.268Z,4480.00
2023-05-14T07:50:33.263Z,4520.00
2023-05-14T07:51:33.255Z,4564.00
2023-05-14T07:52:33.249Z,4608.00
2023-05-14T07:53:33.239Z,4640.00
2023-05-14T07:54:33.216Z,4664.00
2023-05-14T07:55:33.210Z,4704.00
2023-05-14T07:56:33.204Z,4756.00
2023-05-14T07:57:33.311Z,4816.00
2023-05-14T07:58:33.172Z,4852.00
2023-05-14T07:59:33.169Z,4872.00
2023-05-14T08:00:33.159Z,4892.00
2023-05-14T08:01:33.153Z,4904.00
2023-05-14T08:02:33.195Z,4880.00
2023-05-14T08:03:33.186Z,4868.00
2023-05-14T08:04:33.130Z,4888.00
2023-05-14T08:05:33.113Z,4948.00
2023-05-14T08:06:33.117Z,5052.00
2023-05-14T08:07:33.119Z,5180.00
2023-05-14T08:08:33.074Z,5304.00
2023-05-14T08:09:33.070Z,5412.00
2023-05-14T08:10:33.070Z,5492.00
2023-05-14T08:11:33.061Z,5556.00
2023-05-14T08:12:33.039Z,5612.00
2023-05-14T08:13:33.072Z,5620.00
2023-05-14T08:14:33.032Z,5572.00
2023-05-14T08:15:33.007Z,5504.00
2023-05-14T08:16:33.162Z,5476.00
2023-05-14T08:17:33.022Z,5472.00
2023-05-14T08:18:33.004Z,5468.00
2023-05-14T08:19:32.968Z,5440.00
2023-05-14T08:20:32.973Z,5400.00
2023-05-14T08:21:32.971Z,5384.00
2023-05-14T08:22:32.941Z,5392.00
2023-05-14T08:23:32.938Z,5416.00
2023-05-14T08:24:32.927Z,5448.00
2023-05-14T08:25:32.927Z,5480.00
2023-05-14T08:26:32.903Z,5500.00
2023-05-14T08:27:32.902Z,5488.00
2023-05-14T08:28:32.887Z,5448.00
2023-05-14T08:29:32.875Z,5420.00
2023-05-14T08:30:32.987Z,5408.00
2023-05-14T08:31:32.890Z,5408.00
2023-05-14T08:32:32.899Z,5400.00
2023-05-14T08:33:32.850Z,5396.00
2023-05-14T08:34:32.837Z,5372.00
2023-05-14T08:35:32.839Z,5380.00
2023-05-14T08:36:32.831Z,5432.00
2023-05-14T08:37:32.790Z,5516.00
2023-05-14T08:38:32.797Z,5612.00
2023-05-14T08:39:32.793Z,5720.00
2023-05-14T08:40:32.766Z,5760.00
2023-05-14T08:41:32.757Z,5764.00
2023-05-14T08:42:32.749Z,6204.00
2023-05-14T08:43:32.752Z,5904.00
2023-05-14T08:44:32.752Z,5992.00
2023-05-14T08:45:32.716Z,6124.00
2023-05-14T08:46:32.703Z,6124.00
2023-05-14T08:47:32.721Z,5984.00
2023-05-14T08:48:32.840Z,5704.00
2023-05-14T08:49:32.683Z,5564.00
2023-05-14T08:50:32.673Z,5032.00
2023-05-14T08:51:32.663Z,5128.00
2023-05-14T08:52:32.644Z,4964.00
2023-05-14T08:53:32.646Z,4796.00
2023-05-14T08:54:32.638Z,4716.00
2023-05-14T08:55:32.627Z,4728.00
2023-05-14T08:56:32.608Z,4512.00
2023-05-14T08:57:32.600Z,4440.00
2023-05-14T08:58:32.601Z,4156.00
2023-05-14T08:59:32.578Z,4512.00
2023-05-14T09:00:32.565Z,4724.00
2023-05-14T09:01:32.587Z,5176.00
2023-05-14T09:02:32.581Z,5372.00
2023-05-14T09:03:32.586Z,5988.00
2023-05-14T09:04:32.527Z,6436.00
2023-05-14T09:05:32.515Z,6672.00
2023-05-14T09:06:32.508Z,6932.00
2023-05-14T09:07:32.515Z,7056.00
2023-05-14T09:08:32.487Z,6888.00
2023-05-14T09:09:32.474Z,6332.00
2023-05-14T09:10:32.488Z,6616.00
2023-05-14T09:11:32.464Z,6240.00
2023-05-14T09:12:32.463Z,5664.00
2023-05-14T09:13:32.440Z,6444.00
2023-05-14T09:14:32.428Z,6200.00
2023-05-14T09:15:32.425Z,5672.00
2023-05-14T09:16:32.449Z,5648.00
2023-05-14T09:17:32.487Z,5600.00
2023-05-14T09:18:32.436Z,5628.00
2023-05-14T09:19:32.403Z,5820.00
2023-05-14T09:20:32.380Z,5860.00
2023-05-14T09:21:33.528Z,5948.00
2023-05-14T09:22:33.356Z,5380.00
2023-05-14T09:23:32.345Z,5096.00
2023-05-14T09:24:32.328Z,5144.00
2023-05-14T09:25:32.316Z,5404.00
2023-05-14T09:26:32.326Z,5708.00
2023-05-14T09:27:32.302Z,5968.00
2023-05-14T09:28:32.289Z,5984.00
2023-05-14T09:29:32.282Z,6128.00
2023-05-14T09:30:32.296Z,6204.00
2023-05-14T09:31:32.319Z,6336.00
2023-05-14T09:32:32.256Z,6456.00
2023-05-14T09:33:32.247Z,6708.00
2023-05-14T09:34:32.233Z,6444.00
2023-05-14T09:35:32.234Z,5924.00
2023-05-14T09:36:32.216Z,5260.00
2023-05-14T09:37:32.201Z,4964.00
2023-05-14T09:38:32.187Z,5088.00
2023-05-14T09:39:32.196Z,5020.00
2023-05-14T09:40:32.196Z,5216.00
2023-05-14T09:41:32.162Z,5724.00
2023-05-14T09:42:32.155Z,5960.00
2023-05-14T09:43:32.147Z,5744.00
2023-05-14T09:44:32.140Z,5288.00
2023-05-14T09:45:32.140Z,5108.00
2023-05-14T09:46:32.119Z,4948.00
2023-05-14T09:47:32.247Z,5224.00
2023-05-14T09:48:32.163Z,5336.00
2023-05-14T09:49:32.100Z,5324.00
2023-05-14T09:50:32.077Z,5540.00
2023-05-14T09:51:32.067Z,5912.00
2023-05-14T09:52:32.052Z,6184.00
2023-05-14T09:53:32.050Z,6404.00
2023-05-14T09:54:32.051Z,6424.00
2023-05-14T09:55:32.031Z,6256.00
2023-05-14T09:56:32.019Z,6860.00
2023-05-14T09:57:32.013Z,7236.00
2023-05-14T09:58:32.000Z,6260.00
2023-05-14T09:59:32.004Z,7000.00
2023-05-14T10:00:31.981Z,7440.00
2023-05-14T10:01:32.006Z,7448.00
2023-05-14T10:02:32.003Z,7148.00
2023-05-14T10:03:31.966Z,6920.00
2023-05-14T10:04:32.092Z,5424.00
2023-05-14T10:05:31.930Z,4996.00
2023-05-14T10:06:31.922Z,4828.00
2023-05-14T10:07:31.951Z,4656.00
2023-05-14T10:08:31.914Z,4676.00
2023-05-14T10:09:31.895Z,4740.00
2023-05-14T10:10:31.887Z,4744.00
2023-05-14T10:11:31.876Z,4768.00
2023-05-14T10:12:31.863Z,4880.00
2023-05-14T10:13:31.892Z,6300.00
2023-05-14T10:14:31.847Z,9180.00
2023-05-14T10:15:31.841Z,7096.00
2023-05-14T10:16:31.841Z,9800.00
2023-05-14T10:17:31.861Z,7000.00
2023-05-14T10:18:31.841Z,7532.00
2023-05-14T10:19:31.792Z,10572.00
2023-05-14T10:20:31.787Z,9892.00
2023-05-14T10:21:31.787Z,11776.00
2023-05-14T10:22:31.776Z,11520.00
2023-05-14T10:23:31.761Z,9780.00
2023-05-14T10:24:31.752Z,5116.00
2023-05-14T10:25:31.735Z,4612.00
2023-05-14T10:26:31.739Z,15488.00
2023-05-14T10:27:31.726Z,6292.00
2023-05-14T10:28:31.704Z,11884.00
2023-05-14T10:29:31.693Z,23680.00
2023-05-14T10:30:31.680Z,21120.00
2023-05-14T10:31:31.706Z,22720.00
2023-05-14T10:32:31.705Z,27488.00
2023-05-14T10:33:31.656Z,25568.00
2023-05-14T10:34:31.658Z,24352.00
2023-05-14T10:35:31.638Z,23296.00
2023-05-14T10:36:31.635Z,23520.00
2023-05-14T10:37:31.615Z,13408.00
2023-05-14T10:38:31.609Z,23136.00
2023-05-14T10:39:31.593Z,23936.00
2023-05-14T10:40:31.596Z,26112.00
2023-05-14T10:41:31.583Z,25408.00
2023-05-14T10:42:31.573Z,29184.00
2023-05-14T10:43:31.552Z,5612.00
2023-05-14T10:44:31.598Z,6340.00
2023-05-14T10:45:31.548Z,5864.00
2023-05-14T10:46:31.560Z,4900.00
2023-05-14T10:47:31.551Z,5072.00
2023-05-14T10:48:31.514Z,22752.00
2023-05-14T10:49:42.900Z,23424.00
2023-05-14T10:50:33.498Z,24000.00
2023-05-14T10:51:31.600Z,23136.00
2023-05-14T10:52:31.464Z,10268.00
2023-05-14T10:53:31.459Z,5080.00
2023-05-14T10:54:31.497Z,7660.00
2023-05-14T10:55:31.451Z,4208.00
2023-05-14T10:56:31.424Z,3760.00
2023-05-14T10:57:31.428Z,3668.00
2023-05-14T10:58:31.409Z,4008.00
2023-05-14T10:59:31.411Z,5828.00
2023-05-14T11:00:31.423Z,20640.00
2023-05-14T11:01:31.399Z,6064.00
2023-05-14T11:02:31.395Z,5220.00
2023-05-14T11:03:31.403Z,5452.00
2023-05-14T11:04:31.361Z,4860.00
2023-05-14T11:05:31.351Z,5136.00
2023-05-14T11:06:31.345Z,6440.00
2023-05-14T11:07:31.323Z,12272.00
2023-05-14T11:08:31.325Z,14128.00
2023-05-14T11:09:31.316Z,15296.00
2023-05-14T11:10:31.287Z,17120.00
2023-05-14T11:11:31.320Z,20512.00
2023-05-14T11:12:32.273Z,20736.00
2023-05-14T11:13:31.276Z,18272.00
2023-05-14T11:14:31.318Z,18720.00
2023-05-14T11:15:31.242Z,23840.00
2023-05-14T11:16:31.269Z,25088.00
2023-05-14T11:17:31.283Z,18336.00
2023-05-14T11:18:32.264Z,16224.00
2023-05-14T11:19:31.208Z,11872.00
2023-05-14T11:20:31.204Z,13792.00
2023-05-14T11:21:31.223Z,16000.00
2023-05-14T11:22:31.203Z,13176.00
2023-05-14T11:23:31.179Z,13292.00
2023-05-14T11:24:31.190Z,11880.00
2023-05-14T11:25:31.152Z,9496.00
2023-05-14T11:26:31.163Z,4948.00
2023-05-14T11:27:31.148Z,4888.00
2023-05-14T11:28:31.123Z,4752.00
2023-05-14T11:29:31.110Z,7868.00
2023-05-14T11:30:31.108Z,5264.00
2023-05-14T11:31:31.130Z,4376.00
2023-05-14T11:32:31.191Z,5840.00
2023-05-14T11:33:31.075Z,6792.00
2023-05-14T11:34:31.093Z,4316.00
2023-05-14T11:35:31.051Z,4092.00
2023-05-14T11:36:31.052Z,3936.00
2023-05-14T11:37:31.047Z,3684.00
2023-05-14T11:38:31.035Z,3544.00
2023-05-14T11:39:31.015Z,3484.00
2023-05-14T11:40:31.014Z,3488.00
2023-05-14T11:41:31.011Z,3648.00
2023-05-14T11:42:30.980Z,3984.00
2023-05-14T11:43:30.969Z,5180.00
2023-05-14T11:44:30.968Z,6396.00
2023-05-14T11:45:30.956Z,6108.00
2023-05-14T11:46:31.034Z,5168.00
2023-05-14T11:47:30.971Z,5472.00
2023-05-14T11:48:30.945Z,7520.00
2023-05-14T11:49:31.005Z,15712.00
2023-05-14T11:50:30.923Z,7180.00
2023-05-14T11:51:30.918Z,7712.00
2023-05-14T11:52:30.889Z,13576.00
2023-05-14T11:53:30.892Z,15776.00
2023-05-14T11:54:30.883Z,9640.00
2023-05-14T11:55:30.862Z,14520.00
2023-05-14T11:56:31.851Z,27008.00
2023-05-14T11:57:30.860Z,20576.00
2023-05-14T11:58:30.830Z,10996.00
2023-05-14T11:59:30.821Z,11448.00
2023-05-14T12:00:30.826Z,9840.00
2023-05-14T12:01:30.800Z,11428.00
2023-05-14T12:02:30.892Z,8880.00
2023-05-14T12:03:30.950Z,8932.00
2023-05-14T12:04:30.834Z,8320.00
2023-05-14T12:05:30.773Z,7832.00
2023-05-14T12:06:30.754Z,7800.00
2023-05-14T12:07:30.745Z,7200.00
2023-05-14T12:08:30.734Z,6596.00
2023-05-14T12:09:30.734Z,6824.00
2023-05-14T12:10:30.712Z,7968.00
2023-05-14T12:11:30.699Z,7856.00
2023-05-14T12:12:30.692Z,9412.00
2023-05-14T12:13:30.713Z,6472.00
2023-05-14T12:14:30.682Z,5656.00
2023-05-14T12:15:30.657Z,5320.00
2023-05-14T12:16:30.689Z,5456.00
2023-05-14T12:17:30.666Z,6780.00
2023-05-14T12:18:30.850Z,6216.00
2023-05-14T12:19:30.676Z,7636.00
2023-05-14T12:20:30.626Z,19264.00
2023-05-14T12:21:30.600Z,6848.00
2023-05-14T12:22:30.605Z,5320.00
2023-05-14T12:23:30.595Z,8396.00
2023-05-14T12:24:30.583Z,5768.00
2023-05-14T12:25:30.568Z,4740.00
2023-05-14T12:26:30.552Z,4216.00